createdAt,value
2019-04-27T00:01:54.299Z,99.90
2019-04-27T00:07:08.240Z,99.90
2019-04-27T00:12:22.107Z,99.90
2019-04-27T00:17:49.407Z,99.90
2019-04-27T00:22:58.673Z,99.90
2019-04-27T00:28:05.938Z,99.90
2019-04-27T00:33:13.766Z,99.90
2019-04-27T00:38:30.675Z,99.90
2019-04-27T00:43:38.744Z,99.90
2019-04-27T00:48:46.264Z,99.90
2019-04-27T00:53:55.049Z,99.90
2019-04-27T00:59:23.902Z,99.90
2019-04-27T01:04:34.022Z,99.90
2019-04-27T01:09:42.769Z,99.90
2019-04-27T01:14:50.422Z,99.90
2019-04-27T01:19:59.473Z,99.90
2019-04-27T01:25:08.767Z,99.90
2019-04-27T01:30:31.092Z,99.90
2019-04-27T01:35:39.107Z,99.90
2019-04-27T01:40:46.608Z,99.90
2019-04-27T01:45:53.833Z,99.90
2019-04-27T01:51:01.324Z,99.90
2019-04-27T01:56:09.240Z,99.90
2019-04-27T02:01:50.441Z,99.90
2019-04-27T02:06:59.387Z,99.90
2019-04-27T02:12:06.925Z,99.90
2019-04-27T02:17:14.398Z,99.90
2019-04-27T02:22:21.690Z,99.90
2019-04-27T02:27:30.674Z,99.90
2019-04-27T02:32:56.748Z,99.90
2019-04-27T02:38:04.128Z,99.90
2019-04-27T02:43:13.061Z,99.90
2019-04-27T02:48:20.451Z,99.90
2019-04-27T02:53:45.167Z,99.90
2019-04-27T02:58:52.831Z,99.90
2019-04-27T03:04:00.629Z,99.90
2019-04-27T03:09:10.507Z,99.90
2019-04-27T03:14:40.453Z,99.90
2019-04-27T03:19:52.696Z,99.90
2019-04-27T03:25:32.065Z,99.90
2019-04-27T03:30:42.376Z,99.90
2019-04-27T03:35:51.608Z,99.90
2019-04-27T03:40:56.765Z,99.90
2019-04-27T03:46:04.385Z,99.90
2019-04-27T03:51:26.403Z,99.90
2019-04-27T03:56:36.360Z,99.90
2019-04-27T04:01:43.951Z,99.90
2019-04-27T04:06:51.527Z,99.90
2019-04-27T04:12:05.162Z,99.90
2019-04-27T04:17:15.281Z,99.90
2019-04-27T04:22:22.737Z,99.90
2019-04-27T04:27:30.145Z,99.90
2019-04-27T04:32:39.525Z,99.90
2019-04-27T04:37:46.627Z,99.90
2019-04-27T04:43:03.953Z,99.90
2019-04-27T04:48:19.849Z,99.90
2019-04-27T04:53:29.114Z,99.90
2019-04-27T04:58:36.159Z,99.90
2019-04-27T05:03:43.560Z,99.90
2019-04-27T05:08:50.829Z,99.90
2019-04-27T05:14:01.245Z,99.90
2019-04-27T05:19:07.363Z,99.90
2019-04-27T05:24:14.759Z,99.90
2019-04-27T05:29:22.042Z,99.90
2019-04-27T05:34:29.602Z,99.90
2019-04-27T05:39:38.749Z,99.90
2019-04-27T05:45:45.857Z,99.90
2019-04-27T05:50:58.837Z,99.90
2019-04-27T05:56:02.220Z,99.90
2019-04-27T06:01:11.305Z,99.90
2019-04-27T06:06:19.737Z,99.90
2019-04-27T06:11:28.654Z,99.90
2019-04-27T06:16:36.156Z,99.90
2019-04-27T06:21:43.504Z,99.90
2019-04-27T06:26:50.754Z,99.90
2019-04-27T06:31:59.322Z,99.90
2019-04-27T06:37:06.879Z,99.90
2019-04-27T06:42:18.186Z,99.90
2019-04-27T06:47:23.146Z,99.90
2019-04-27T06:52:30.503Z,99.90
2019-04-27T06:57:41.227Z,99.90
2019-04-27T07:02:49.380Z,99.90
2019-04-27T07:07:56.806Z,99.90
2019-04-27T07:13:04.057Z,99.90
2019-04-27T07:18:11.525Z,99.90
2019-04-27T07:23:20.900Z,99.90
2019-04-27T07:28:28.662Z,99.90
2019-04-27T07:33:36.148Z,99.90
2019-04-27T07:38:43.484Z,99.90
2019-04-27T07:43:59.691Z,99.90
2019-04-27T07:49:07.087Z,99.90
2019-04-27T07:54:14.495Z,99.90
2019-04-27T07:59:21.885Z,99.90
2019-04-27T08:04:29.309Z,99.90
2019-04-27T08:09:36.685Z,99.10
2019-04-27T08:14:43.957Z,98.10
2019-04-27T08:19:51.310Z,98.00
2019-04-27T08:24:59.492Z,98.30
2019-04-27T08:30:16.162Z,97.90
2019-04-27T08:35:24.376Z,99.00
2019-04-27T08:40:31.726Z,97.80
2019-04-27T08:45:39.321Z,97.80
2019-04-27T08:50:48.537Z,97.20
2019-04-27T08:55:55.658Z,96.00
2019-04-27T09:01:02.953Z,95.60
2019-04-27T09:06:12.153Z,94.60
2019-04-27T09:11:41.067Z,94.80
2019-04-27T09:17:10.015Z,93.40
2019-04-27T09:22:19.300Z,93.30
2019-04-27T09:27:26.436Z,94.60
2019-04-27T09:32:33.846Z,92.00
2019-04-27T09:37:42.120Z,84.40
2019-04-27T09:42:49.419Z,82.50
2019-04-27T09:47:58.000Z,87.80
2019-04-27T09:53:06.404Z,84.60
2019-04-27T09:58:13.904Z,86.20
2019-04-27T10:03:21.214Z,85.90
2019-04-27T10:08:28.624Z,91.60
2019-04-27T10:13:36.428Z,93.00
2019-04-27T10:18:45.734Z,93.30
2019-04-27T10:23:52.947Z,91.10
2019-04-27T10:29:00.359Z,86.80
2019-04-27T10:34:07.752Z,80.50
2019-04-27T10:39:17.062Z,83.50
2019-04-27T10:44:24.520Z,91.10
2019-04-27T10:49:32.756Z,90.20
2019-04-27T10:54:40.085Z,91.00
2019-04-27T10:59:47.600Z,88.20
2019-04-27T11:05:08.076Z,81.10
2019-04-27T11:10:16.320Z,84.40
2019-04-27T11:15:26.397Z,84.00
2019-04-27T11:20:33.874Z,86.40
2019-04-27T11:25:41.228Z,85.60
2019-04-27T11:30:48.464Z,70.30
2019-04-27T11:36:15.402Z,51.50
2019-04-27T11:41:23.582Z,40.50
2019-04-27T11:46:30.917Z,45.00
2019-04-27T11:51:38.341Z,40.30
2019-04-27T11:56:47.229Z,36.70
2019-04-27T12:01:55.932Z,32.50
2019-04-27T12:07:03.704Z,33.10
2019-04-27T12:12:15.983Z,42.30
2019-04-27T12:17:20.992Z,49.10
2019-04-27T12:22:28.440Z,45.70
2019-04-27T12:28:04.803Z,41.80
2019-04-27T12:33:12.478Z,42.00
2019-04-27T12:38:19.917Z,38.60
2019-04-27T12:43:27.270Z,35.20
2019-04-27T12:48:37.162Z,34.50
2019-04-27T12:54:09.066Z,34.80
2019-04-27T12:59:22.783Z,39.10
2019-04-27T13:04:30.935Z,43.10
2019-04-27T13:09:39.370Z,47.10
2019-04-27T13:14:47.302Z,49.30
2019-04-27T13:19:56.072Z,49.70
2019-04-27T13:25:03.538Z,53.90
2019-04-27T13:30:11.864Z,54.40
2019-04-27T13:35:19.502Z,58.40
2019-04-27T13:40:27.688Z,57.50
2019-04-27T13:46:02.399Z,59.20
2019-04-27T13:51:13.154Z,59.50
2019-04-27T13:56:20.753Z,58.70
2019-04-27T14:01:28.583Z,58.80
2019-04-27T14:06:36.445Z,59.30
2019-04-27T14:11:43.850Z,57.90
2019-04-27T14:16:51.246Z,60.70
2019-04-27T14:21:59.717Z,58.10
2019-04-27T14:27:07.526Z,60.00
2019-04-27T14:32:15.413Z,61.10
2019-04-27T14:37:23.262Z,63.10
2019-04-27T14:42:31.330Z,64.80
2019-04-27T14:47:39.927Z,65.90
2019-04-27T14:52:48.652Z,66.90
2019-04-27T14:57:58.544Z,62.90
2019-04-27T15:03:06.020Z,65.80
2019-04-27T15:08:15.216Z,69.50
2019-04-27T15:13:22.675Z,67.10
2019-04-27T15:18:34.620Z,68.10
2019-04-27T15:23:43.784Z,72.10
2019-04-27T15:28:53.018Z,69.60
2019-04-27T15:34:16.538Z,68.80
2019-04-27T15:39:42.116Z,71.10
2019-04-27T15:44:51.033Z,65.00
2019-04-27T15:49:58.953Z,71.50
2019-04-27T15:55:17.778Z,73.40
2019-04-27T16:00:24.684Z,73.50
2019-04-27T16:05:33.367Z,85.90
2019-04-27T16:10:42.084Z,87.10
2019-04-27T16:15:54.118Z,87.60
2019-04-27T16:21:02.767Z,90.10
2019-04-27T16:26:11.003Z,90.10
2019-04-27T16:31:18.705Z,90.50
2019-04-27T16:36:28.884Z,89.80
2019-04-27T16:41:37.450Z,91.50
2019-04-27T16:46:45.714Z,93.00
2019-04-27T16:52:11.641Z,94.10
2019-04-27T16:57:18.429Z,94.40
2019-04-27T17:02:27.458Z,94.40
2019-04-27T17:07:37.503Z,94.10
2019-04-27T17:12:46.020Z,94.50
2019-04-27T17:18:11.837Z,93.70
2019-04-27T17:23:31.249Z,94.90
2019-04-27T17:28:44.329Z,94.10
2019-04-27T17:33:58.649Z,94.90
2019-04-27T17:39:09.460Z,94.60
2019-04-27T17:44:22.671Z,95.20
2019-04-27T17:49:27.965Z,95.40
2019-04-27T17:54:36.158Z,95.20
2019-04-27T17:59:44.894Z,94.40
2019-04-27T18:04:52.433Z,93.70
2019-04-27T18:10:00.002Z,95.70
2019-04-27T18:15:10.494Z,97.60
2019-04-27T18:20:20.102Z,99.90
2019-04-27T18:25:28.610Z,99.90
2019-04-27T18:31:01.018Z,99.90
2019-04-27T18:36:13.659Z,99.90
2019-04-27T18:41:18.359Z,99.90
2019-04-27T18:46:25.779Z,99.90
2019-04-27T18:51:48.361Z,99.90
2019-04-27T18:57:02.839Z,99.90
2019-04-27T19:02:06.179Z,99.90
2019-04-27T19:07:16.445Z,99.90
2019-04-27T19:12:24.081Z,99.90
2019-04-27T19:17:31.957Z,99.90
2019-04-27T19:22:39.780Z,99.90
2019-04-27T19:28:13.671Z,99.90
2019-04-27T19:33:21.319Z,99.90
2019-04-27T19:38:29.207Z,99.90
2019-04-27T19:43:38.374Z,99.90
2019-04-27T19:48:47.339Z,99.90
2019-04-27T19:53:55.037Z,99.90
2019-04-27T19:59:06.039Z,99.90
2019-04-27T20:04:23.416Z,99.90
2019-04-27T20:09:49.959Z,99.90
2019-04-27T20:14:57.999Z,99.90
2019-04-27T20:20:06.783Z,99.90
2019-04-27T20:25:14.869Z,99.90
2019-04-27T20:30:22.476Z,99.90
2019-04-27T20:35:29.955Z,99.90
2019-04-27T20:40:37.578Z,99.90
2019-04-27T20:45:46.993Z,99.90
2019-04-27T20:50:54.780Z,99.90
2019-04-27T20:56:02.483Z,99.90
2019-04-27T21:01:10.107Z,99.90
2019-04-27T21:06:40.790Z,99.90
2019-04-27T21:11:49.612Z,99.90
2019-04-27T21:16:57.225Z,99.90
2019-04-27T21:22:04.877Z,99.90
2019-04-27T21:27:13.017Z,99.90
2019-04-27T21:32:20.883Z,99.90
2019-04-27T21:37:28.510Z,99.90
2019-04-27T21:42:36.238Z,99.90
2019-04-27T21:47:43.913Z,99.90
2019-04-27T21:53:25.940Z,99.90
2019-04-27T21:58:33.553Z,99.90
2019-04-27T22:03:41.326Z,99.90
2019-04-27T22:08:48.860Z,99.90
2019-04-27T22:13:56.582Z,99.90
2019-04-27T22:19:04.731Z,99.90
2019-04-27T22:24:26.071Z,99.90
2019-04-27T22:29:34.063Z,99.90
2019-04-27T22:34:41.972Z,99.90
2019-04-27T22:40:12.072Z,99.90
2019-04-27T22:45:27.301Z,99.90
2019-04-27T22:50:35.166Z,99.90
2019-04-27T22:56:01.689Z,99.90
2019-04-27T23:01:18.923Z,99.90
2019-04-27T23:06:26.862Z,99.90
2019-04-27T23:11:34.626Z,99.90
2019-04-27T23:16:44.103Z,99.90
2019-04-27T23:21:53.275Z,99.90
2019-04-27T23:27:03.584Z,99.90
2019-04-27T23:32:23.688Z,99.90
2019-04-27T23:37:32.478Z,99.90
2019-04-27T23:42:41.631Z,99.90
2019-04-27T23:47:50.627Z,99.90
2019-04-27T23:53:09.405Z,99.90
2019-04-27T23:58:17.104Z,99.90
